sensor_id;sensor_type;location;lat;lon;timestamp;P1;durP1;ratioP1;P2;durP2;ratioP2
7255;SDS011;3669;49.200;9.242;2022-07-04T00:01:42;1.88;;;1.23;;
7255;SDS011;3669;49.200;9.242;2022-07-04T00:04:09;1.33;;;1.20;;
7255;SDS011;3669;49.200;9.242;2022-07-04T00:06:36;2.13;;;1.27;;
7255;SDS011;3669;49.200;9.242;2022-07-04T00:09:03;2.08;;;1.42;;
7255;SDS011;3669;49.200;9.242;2022-07-04T00:11:30;2.35;;;1.50;;
7255;SDS011;3669;49.200;9.242;2022-07-04T00:13:58;1.52;;;1.42;;
7255;SDS011;3669;49.200;9.242;2022-07-04T00:16:25;2.50;;;1.15;;
7255;SDS011;3669;49.200;9.242;2022-07-04T00:18:52;1.73;;;1.23;;
7255;SDS011;3669;49.200;9.242;2022-07-04T00:21:19;1.58;;;1.48;;
7255;SDS011;3669;49.200;9.242;2022-07-04T00:23:46;1.52;;;1.33;;
7255;SDS011;3669;49.200;9.242;2022-07-04T00:26:14;2.10;;;1.15;;
7255;SDS011;3669;49.200;9.242;2022-07-04T00:28:41;11.88;;;11.02;;
7255;SDS011;3669;49.200;9.242;2022-07-04T00:31:08;1.83;;;1.40;;
7255;SDS011;3669;49.200;9.242;2022-07-04T00:33:35;1.48;;;1.38;;
7255;SDS011;3669;49.200;9.242;2022-07-04T00:36:02;1.40;;;1.30;;
7255;SDS011;3669;49.200;9.242;2022-07-04T00:38:29;2.22;;;1.33;;
7255;SDS011;3669;49.200;9.242;2022-07-04T00:40:56;1.90;;;1.45;;
7255;SDS011;3669;49.200;9.242;2022-07-04T00:43:23;10.88;;;10.32;;
7255;SDS011;3669;49.200;9.242;2022-07-04T00:45:50;24.02;;;22.77;;
7255;SDS011;3669;49.200;9.242;2022-07-04T00:48:17;28.75;;;27.30;;
7255;SDS011;3669;49.200;9.242;2022-07-04T00:50:45;20.02;;;19.13;;
7255;SDS011;3669;49.200;9.242;2022-07-04T00:53:13;18.48;;;17.73;;
7255;SDS011;3669;49.200;9.242;2022-07-04T00:55:40;14.25;;;13.57;;
7255;SDS011;3669;49.200;9.242;2022-07-04T00:58:07;7.53;;;7.07;;
7255;SDS011;3669;49.200;9.242;2022-07-04T01:00:34;2.67;;;2.50;;
7255;SDS011;3669;49.200;9.242;2022-07-04T01:03:01;1.52;;;1.40;;
7255;SDS011;3669;49.200;9.242;2022-07-04T01:05:28;2.20;;;1.30;;
7255;SDS011;3669;49.200;9.242;2022-07-04T01:07:55;1.60;;;1.50;;
7255;SDS011;3669;49.200;9.242;2022-07-04T01:10:23;1.30;;;1.13;;
7255;SDS011;3669;49.200;9.242;2022-07-04T01:12:50;1.65;;;1.23;;
7255;SDS011;3669;49.200;9.242;2022-07-04T01:15:17;1.38;;;1.27;;
7255;SDS011;3669;49.200;9.242;2022-07-04T01:17:44;1.65;;;1.20;;
7255;SDS011;3669;49.200;9.242;2022-07-04T01:20:12;1.75;;;1.13;;
7255;SDS011;3669;49.200;9.242;2022-07-04T01:22:39;1.88;;;1.33;;
7255;SDS011;3669;49.200;9.242;2022-07-04T01:25:09;2.35;;;1.30;;
7255;SDS011;3669;49.200;9.242;2022-07-04T01:27:36;1.25;;;1.15;;
7255;SDS011;3669;49.200;9.242;2022-07-04T01:30:03;2.00;;;1.33;;
7255;SDS011;3669;49.200;9.242;2022-07-04T01:32:31;1.85;;;1.42;;
7255;SDS011;3669;49.200;9.242;2022-07-04T01:34:58;2.95;;;1.20;;
7255;SDS011;3669;49.200;9.242;2022-07-04T01:37:25;1.38;;;1.27;;
7255;SDS011;3669;49.200;9.242;2022-07-04T01:39:52;1.77;;;1.20;;
7255;SDS011;3669;49.200;9.242;2022-07-04T01:42:19;1.98;;;1.30;;
7255;SDS011;3669;49.200;9.242;2022-07-04T01:44:46;1.42;;;1.33;;
7255;SDS011;3669;49.200;9.242;2022-07-04T01:47:13;1.67;;;1.30;;
7255;SDS011;3669;49.200;9.242;2022-07-04T01:49:40;1.30;;;1.20;;
7255;SDS011;3669;49.200;9.242;2022-07-04T01:52:08;1.58;;;1.35;;
7255;SDS011;3669;49.200;9.242;2022-07-04T01:54:35;1.20;;;1.10;;
7255;SDS011;3669;49.200;9.242;2022-07-04T01:57:02;2.15;;;1.30;;
7255;SDS011;3669;49.200;9.242;2022-07-04T01:59:29;1.65;;;1.30;;
7255;SDS011;3669;49.200;9.242;2022-07-04T02:02:14;2.22;;;1.42;;
7255;SDS011;3669;49.200;9.242;2022-07-04T02:04:41;1.70;;;1.40;;
7255;SDS011;3669;49.200;9.242;2022-07-04T02:07:08;1.67;;;1.50;;
7255;SDS011;3669;49.200;9.242;2022-07-04T02:09:35;9.88;;;9.40;;
7255;SDS011;3669;49.200;9.242;2022-07-04T02:12:02;1.95;;;1.13;;
7255;SDS011;3669;49.200;9.242;2022-07-04T02:14:48;1.42;;;1.30;;
7255;SDS011;3669;49.200;9.242;2022-07-04T02:17:15;2.22;;;1.48;;
7255;SDS011;3669;49.200;9.242;2022-07-04T02:19:42;1.00;;;0.95;;
7255;SDS011;3669;49.200;9.242;2022-07-04T02:22:09;1.60;;;1.50;;
7255;SDS011;3669;49.200;9.242;2022-07-04T02:24:36;2.90;;;1.42;;
7255;SDS011;3669;49.200;9.242;2022-07-04T02:27:03;1.40;;;1.30;;
7255;SDS011;3669;49.200;9.242;2022-07-04T02:29:30;1.75;;;1.40;;
7255;SDS011;3669;49.200;9.242;2022-07-04T02:31:58;1.75;;;1.23;;
7255;SDS011;3669;49.200;9.242;2022-07-04T02:34:25;2.00;;;1.20;;
7255;SDS011;3669;49.200;9.242;2022-07-04T02:36:53;2.55;;;1.40;;
7255;SDS011;3669;49.200;9.242;2022-07-04T02:39:20;1.92;;;1.30;;
7255;SDS011;3669;49.200;9.242;2022-07-04T02:41:47;1.42;;;1.30;;
7255;SDS011;3669;49.200;9.242;2022-07-04T02:44:14;1.50;;;1.40;;
7255;SDS011;3669;49.200;9.242;2022-07-04T02:46:41;1.40;;;1.30;;
7255;SDS011;3669;49.200;9.242;2022-07-04T02:49:08;2.50;;;1.42;;
7255;SDS011;3669;49.200;9.242;2022-07-04T02:51:35;1.52;;;1.20;;
7255;SDS011;3669;49.200;9.242;2022-07-04T02:54:03;8.13;;;7.63;;
7255;SDS011;3669;49.200;9.242;2022-07-04T02:56:29;15.05;;;14.32;;
7255;SDS011;3669;49.200;9.242;2022-07-04T02:58:56;21.50;;;20.40;;
7255;SDS011;3669;49.200;9.242;2022-07-04T03:01:24;20.25;;;19.30;;
7255;SDS011;3669;49.200;9.242;2022-07-04T03:03:51;19.70;;;18.77;;
7255;SDS011;3669;49.200;9.242;2022-07-04T03:06:18;24.70;;;23.45;;
7255;SDS011;3669;49.200;9.242;2022-07-04T03:08:44;15.75;;;14.85;;
7255;SDS011;3669;49.200;9.242;2022-07-04T03:11:11;2.15;;;1.83;;
7255;SDS011;3669;49.200;9.242;2022-07-04T03:13:39;2.45;;;1.35;;
7255;SDS011;3669;49.200;9.242;2022-07-04T03:16:06;1.60;;;1.40;;
7255;SDS011;3669;49.200;9.242;2022-07-04T03:18:34;1.88;;;1.38;;
7255;SDS011;3669;49.200;9.242;2022-07-04T03:21:01;1.80;;;1.40;;
7255;SDS011;3669;49.200;9.242;2022-07-04T03:23:30;1.45;;;1.35;;
7255;SDS011;3669;49.200;9.242;2022-07-04T03:25:57;1.60;;;1.25;;
7255;SDS011;3669;49.200;9.242;2022-07-04T03:28:25;1.98;;;1.45;;
7255;SDS011;3669;49.200;9.242;2022-07-04T03:30:52;1.40;;;1.17;;
7255;SDS011;3669;49.200;9.242;2022-07-04T03:33:19;1.40;;;1.17;;
7255;SDS011;3669;49.200;9.242;2022-07-04T03:35:46;2.30;;;1.30;;
7255;SDS011;3669;49.200;9.242;2022-07-04T03:38:25;1.63;;;1.35;;
7255;SDS011;3669;49.200;9.242;2022-07-04T03:40:52;2.83;;;1.58;;
7255;SDS011;3669;49.200;9.242;2022-07-04T03:43:19;1.70;;;1.33;;
7255;SDS011;3669;49.200;9.242;2022-07-04T03:45:46;2.83;;;1.55;;
7255;SDS011;3669;49.200;9.242;2022-07-04T03:48:13;1.60;;;1.50;;
7255;SDS011;3669;49.200;9.242;2022-07-04T03:50:40;1.83;;;1.40;;
7255;SDS011;3669;49.200;9.242;2022-07-04T03:53:08;1.50;;;1.40;;
7255;SDS011;3669;49.200;9.242;2022-07-04T03:55:35;1.75;;;1.35;;
7255;SDS011;3669;49.200;9.242;2022-07-04T03:58:02;1.40;;;1.30;;
7255;SDS011;3669;49.200;9.242;2022-07-04T04:00:30;1.50;;;1.40;;
7255;SDS011;3669;49.200;9.242;2022-07-04T04:02:58;1.77;;;1.50;;
7255;SDS011;3669;49.200;9.242;2022-07-04T04:05:25;2.08;;;1.52;;
7255;SDS011;3669;49.200;9.242;2022-07-04T04:07:53;1.60;;;1.50;;
7255;SDS011;3669;49.200;9.242;2022-07-04T04:10:20;1.48;;;1.33;;
7255;SDS011;3669;49.200;9.242;2022-07-04T04:12:48;2.33;;;1.60;;
7255;SDS011;3669;49.200;9.242;2022-07-04T04:15:15;2.47;;;1.65;;
7255;SDS011;3669;49.200;9.242;2022-07-04T04:17:43;1.92;;;1.60;;
7255;SDS011;3669;49.200;9.242;2022-07-04T04:20:11;1.48;;;1.38;;
7255;SDS011;3669;49.200;9.242;2022-07-04T04:22:38;1.58;;;1.48;;
7255;SDS011;3669;49.200;9.242;2022-07-04T04:25:05;2.20;;;1.70;;
7255;SDS011;3669;49.200;9.242;2022-07-04T04:27:32;2.28;;;1.60;;
7255;SDS011;3669;49.200;9.242;2022-07-04T04:29:59;1.58;;;1.48;;
7255;SDS011;3669;49.200;9.242;2022-07-04T04:32:26;1.55;;;1.45;;
7255;SDS011;3669;49.200;9.242;2022-07-04T04:34:53;1.50;;;1.40;;
7255;SDS011;3669;49.200;9.242;2022-07-04T04:37:20;1.58;;;1.48;;
7255;SDS011;3669;49.200;9.242;2022-07-04T04:39:47;3.33;;;1.90;;
7255;SDS011;3669;49.200;9.242;2022-07-04T04:42:14;1.88;;;1.55;;
7255;SDS011;3669;49.200;9.242;2022-07-04T04:44:41;1.88;;;1.50;;
7255;SDS011;3669;49.200;9.242;2022-07-04T04:47:08;1.70;;;1.60;;
7255;SDS011;3669;49.200;9.242;2022-07-04T04:49:36;2.03;;;1.50;;
7255;SDS011;3669;49.200;9.242;2022-07-04T04:52:03;1.70;;;1.50;;
7255;SDS011;3669;49.200;9.242;2022-07-04T04:54:32;1.58;;;1.30;;
7255;SDS011;3669;49.200;9.242;2022-07-04T04:56:59;2.17;;;1.65;;
7255;SDS011;3669;49.200;9.242;2022-07-04T04:59:27;2.88;;;1.83;;
7255;SDS011;3669;49.200;9.242;2022-07-04T05:01:55;2.00;;;1.80;;
7255;SDS011;3669;49.200;9.242;2022-07-04T05:04:22;2.47;;;1.60;;
7255;SDS011;3669;49.200;9.242;2022-07-04T05:06:49;2.60;;;1.70;;
7255;SDS011;3669;49.200;9.242;2022-07-04T05:09:16;2.60;;;1.88;;
7255;SDS011;3669;49.200;9.242;2022-07-04T05:11:43;2.05;;;1.85;;
7255;SDS011;3669;49.200;9.242;2022-07-04T05:14:10;2.42;;;1.70;;
7255;SDS011;3669;49.200;9.242;2022-07-04T05:16:37;8.98;;;8.35;;
7255;SDS011;3669;49.200;9.242;2022-07-04T05:19:04;5.53;;;5.13;;
7255;SDS011;3669;49.200;9.242;2022-07-04T05:21:31;21.45;;;20.27;;
7255;SDS011;3669;49.200;9.242;2022-07-04T05:23:58;24.52;;;23.40;;
7255;SDS011;3669;49.200;9.242;2022-07-04T05:26:25;20.63;;;19.58;;
7255;SDS011;3669;49.200;9.242;2022-07-04T05:28:52;8.45;;;7.95;;
7255;SDS011;3669;49.200;9.242;2022-07-04T05:31:21;18.50;;;17.58;;
7255;SDS011;3669;49.200;9.242;2022-07-04T05:33:51;15.05;;;14.23;;
7255;SDS011;3669;49.200;9.242;2022-07-04T05:36:21;10.90;;;10.27;;
7255;SDS011;3669;49.200;9.242;2022-07-04T05:38:47;7.70;;;7.30;;
7255;SDS011;3669;49.200;9.242;2022-07-04T05:41:14;2.90;;;2.67;;
7255;SDS011;3669;49.200;9.242;2022-07-04T05:43:41;2.22;;;1.63;;
7255;SDS011;3669;49.200;9.242;2022-07-04T05:46:08;2.95;;;1.80;;
7255;SDS011;3669;49.200;9.242;2022-07-04T05:48:36;2.08;;;1.73;;
7255;SDS011;3669;49.200;9.242;2022-07-04T05:51:03;2.25;;;1.88;;
7255;SDS011;3669;49.200;9.242;2022-07-04T05:53:30;3.13;;;2.03;;
7255;SDS011;3669;49.200;9.242;2022-07-04T05:55:57;2.38;;;2.00;;
7255;SDS011;3669;49.200;9.242;2022-07-04T05:58:25;2.15;;;1.90;;
7255;SDS011;3669;49.200;9.242;2022-07-04T06:00:52;4.72;;;1.90;;
7255;SDS011;3669;49.200;9.242;2022-07-04T06:03:19;2.05;;;1.70;;
7255;SDS011;3669;49.200;9.242;2022-07-04T06:05:46;2.08;;;1.70;;
7255;SDS011;3669;49.200;9.242;2022-07-04T06:08:15;2.03;;;1.70;;
7255;SDS011;3669;49.200;9.242;2022-07-04T06:10:42;3.40;;;1.55;;
7255;SDS011;3669;49.200;9.242;2022-07-04T06:13:09;2.15;;;1.90;;
7255;SDS011;3669;49.200;9.242;2022-07-04T06:15:36;2.17;;;1.80;;
7255;SDS011;3669;49.200;9.242;2022-07-04T06:18:03;1.90;;;1.65;;
7255;SDS011;3669;49.200;9.242;2022-07-04T06:20:30;2.83;;;1.73;;
7255;SDS011;3669;49.200;9.242;2022-07-04T06:22:57;4.10;;;1.80;;
7255;SDS011;3669;49.200;9.242;2022-07-04T06:25:24;2.22;;;1.70;;
7255;SDS011;3669;49.200;9.242;2022-07-04T06:27:51;3.30;;;1.80;;
7255;SDS011;3669;49.200;9.242;2022-07-04T06:30:19;1.85;;;1.65;;
7255;SDS011;3669;49.200;9.242;2022-07-04T06:32:50;2.75;;;1.80;;
7255;SDS011;3669;49.200;9.242;2022-07-04T06:35:19;2.35;;;1.70;;
7255;SDS011;3669;49.200;9.242;2022-07-04T06:38:05;3.47;;;1.90;;
7255;SDS011;3669;49.200;9.242;2022-07-04T06:40:32;2.92;;;1.50;;
7255;SDS011;3669;49.200;9.242;2022-07-04T06:43:00;11.23;;;10.55;;
7255;SDS011;3669;49.200;9.242;2022-07-04T06:45:27;2.90;;;1.70;;
7255;SDS011;3669;49.200;9.242;2022-07-04T06:47:54;1.58;;;1.48;;
7255;SDS011;3669;49.200;9.242;2022-07-04T06:50:21;3.13;;;1.60;;
7255;SDS011;3669;49.200;9.242;2022-07-04T06:52:48;2.00;;;1.50;;
7255;SDS011;3669;49.200;9.242;2022-07-04T06:55:17;2.88;;;1.77;;
7255;SDS011;3669;49.200;9.242;2022-07-04T06:57:50;1.90;;;1.60;;
7255;SDS011;3669;49.200;9.242;2022-07-04T07:00:17;2.25;;;1.50;;
7255;SDS011;3669;49.200;9.242;2022-07-04T07:02:44;2.63;;;1.55;;
7255;SDS011;3669;49.200;9.242;2022-07-04T07:05:11;1.73;;;1.50;;
7255;SDS011;3669;49.200;9.242;2022-07-04T07:07:38;1.58;;;1.30;;
7255;SDS011;3669;49.200;9.242;2022-07-04T07:10:05;3.25;;;1.80;;
7255;SDS011;3669;49.200;9.242;2022-07-04T07:12:33;3.47;;;1.67;;
7255;SDS011;3669;49.200;9.242;2022-07-04T07:15:01;3.92;;;1.52;;
7255;SDS011;3669;49.200;9.242;2022-07-04T07:17:28;2.28;;;1.52;;
7255;SDS011;3669;49.200;9.242;2022-07-04T07:19:55;3.60;;;1.70;;
7255;SDS011;3669;49.200;9.242;2022-07-04T07:22:22;4.30;;;1.80;;
7255;SDS011;3669;49.200;9.242;2022-07-04T07:24:49;2.22;;;1.45;;
7255;SDS011;3669;49.200;9.242;2022-07-04T07:27:17;2.80;;;1.65;;
7255;SDS011;3669;49.200;9.242;2022-07-04T07:29:44;2.75;;;1.38;;
7255;SDS011;3669;49.200;9.242;2022-07-04T07:32:11;2.97;;;1.80;;
7255;SDS011;3669;49.200;9.242;2022-07-04T07:34:38;2.47;;;1.40;;
7255;SDS011;3669;49.200;9.242;2022-07-04T07:37:06;1.50;;;1.27;;
7255;SDS011;3669;49.200;9.242;2022-07-04T07:39:33;3.72;;;1.40;;
7255;SDS011;3669;49.200;9.242;2022-07-04T07:42:00;2.60;;;1.77;;
7255;SDS011;3669;49.200;9.242;2022-07-04T07:44:27;2.53;;;1.58;;
7255;SDS011;3669;49.200;9.242;2022-07-04T07:46:54;2.75;;;1.73;;
7255;SDS011;3669;49.200;9.242;2022-07-04T07:49:25;2.88;;;1.60;;
7255;SDS011;3669;49.200;9.242;2022-07-04T07:51:52;2.42;;;1.40;;
7255;SDS011;3669;49.200;9.242;2022-07-04T07:54:21;1.92;;;1.58;;
7255;SDS011;3669;49.200;9.242;2022-07-04T07:56:48;1.73;;;1.60;;
7255;SDS011;3669;49.200;9.242;2022-07-04T07:59:15;2.55;;;1.50;;
7255;SDS011;3669;49.200;9.242;2022-07-04T08:01:41;12.13;;;11.48;;
7255;SDS011;3669;49.200;9.242;2022-07-04T08:04:08;31.42;;;29.77;;
7255;SDS011;3669;49.200;9.242;2022-07-04T08:06:54;20.02;;;19.13;;
7255;SDS011;3669;49.200;9.242;2022-07-04T08:09:21;14.80;;;14.05;;
7255;SDS011;3669;49.200;9.242;2022-07-04T08:11:48;16.15;;;15.27;;
7255;SDS011;3669;49.200;9.242;2022-07-04T08:14:15;11.25;;;10.75;;
7255;SDS011;3669;49.200;9.242;2022-07-04T08:16:41;6.43;;;6.03;;
7255;SDS011;3669;49.200;9.242;2022-07-04T08:19:08;2.45;;;1.77;;
7255;SDS011;3669;49.200;9.242;2022-07-04T08:21:35;2.78;;;1.98;;
7255;SDS011;3669;49.200;9.242;2022-07-04T08:24:02;3.47;;;1.73;;
7255;SDS011;3669;49.200;9.242;2022-07-04T08:26:29;2.65;;;1.60;;
7255;SDS011;3669;49.200;9.242;2022-07-04T08:28:56;10.85;;;10.07;;
7255;SDS011;3669;49.200;9.242;2022-07-04T08:31:25;4.75;;;1.50;;
7255;SDS011;3669;49.200;9.242;2022-07-04T08:33:53;2.75;;;1.58;;
7255;SDS011;3669;49.200;9.242;2022-07-04T08:36:20;1.70;;;1.40;;
7255;SDS011;3669;49.200;9.242;2022-07-04T08:38:47;2.15;;;1.65;;
7255;SDS011;3669;49.200;9.242;2022-07-04T08:41:17;1.70;;;1.45;;
7255;SDS011;3669;49.200;9.242;2022-07-04T08:43:45;2.22;;;1.38;;
7255;SDS011;3669;49.200;9.242;2022-07-04T08:46:14;1.73;;;1.30;;
7255;SDS011;3669;49.200;9.242;2022-07-04T08:48:50;1.75;;;1.35;;
7255;SDS011;3669;49.200;9.242;2022-07-04T08:52:01;2.17;;;1.40;;
7255;SDS011;3669;49.200;9.242;2022-07-04T08:54:08;2.05;;;1.10;;
7255;SDS011;3669;49.200;9.242;2022-07-04T08:56:54;2.30;;;1.60;;
7255;SDS011;3669;49.200;9.242;2022-07-04T08:59:40;1.98;;;1.17;;
7255;SDS011;3669;49.200;9.242;2022-07-04T09:02:13;2.15;;;1.30;;
7255;SDS011;3669;49.200;9.242;2022-07-04T09:04:40;2.45;;;1.63;;
7255;SDS011;3669;49.200;9.242;2022-07-04T09:07:12;1.52;;;1.13;;
7255;SDS011;3669;49.200;9.242;2022-07-04T09:09:40;2.22;;;1.50;;
7255;SDS011;3669;49.200;9.242;2022-07-04T09:12:07;1.60;;;1.50;;
7255;SDS011;3669;49.200;9.242;2022-07-04T09:14:35;1.48;;;1.33;;
7255;SDS011;3669;49.200;9.242;2022-07-04T09:17:02;1.60;;;1.45;;
7255;SDS011;3669;49.200;9.242;2022-07-04T09:19:30;3.22;;;1.60;;
7255;SDS011;3669;49.200;9.242;2022-07-04T09:21:59;1.52;;;1.42;;
7255;SDS011;3669;49.200;9.242;2022-07-04T09:27:28;1.65;;;1.20;;
7255;SDS011;3669;49.200;9.242;2022-07-04T09:29:57;2.05;;;1.50;;
7255;SDS011;3669;49.200;9.242;2022-07-04T09:32:32;1.40;;;1.30;;
7255;SDS011;3669;49.200;9.242;2022-07-04T09:35:11;3.50;;;2.08;;
7255;SDS011;3669;49.200;9.242;2022-07-04T09:37:40;0.98;;;0.98;;
7255;SDS011;3669;49.200;9.242;2022-07-04T09:40:25;1.60;;;1.50;;
7255;SDS011;3669;49.200;9.242;2022-07-04T09:42:52;8.63;;;8.15;;
7255;SDS011;3669;49.200;9.242;2022-07-04T09:45:20;1.30;;;1.20;;
7255;SDS011;3669;49.200;9.242;2022-07-04T09:47:50;2.53;;;1.42;;
7255;SDS011;3669;49.200;9.242;2022-07-04T09:50:18;1.50;;;1.40;;
7255;SDS011;3669;49.200;9.242;2022-07-04T09:52:46;1.77;;;1.33;;
7255;SDS011;3669;49.200;9.242;2022-07-04T09:55:35;1.42;;;1.20;;
7255;SDS011;3669;49.200;9.242;2022-07-04T09:58:06;2.10;;;1.50;;
7255;SDS011;3669;49.200;9.242;2022-07-04T10:00:39;2.63;;;1.30;;
7255;SDS011;3669;49.200;9.242;2022-07-04T10:03:25;1.48;;;1.30;;
7255;SDS011;3669;49.200;9.242;2022-07-04T10:06:09;1.55;;;1.20;;
7255;SDS011;3669;49.200;9.242;2022-07-04T10:08:37;1.58;;;1.30;;
7255;SDS011;3669;49.200;9.242;2022-07-04T10:11:05;1.70;;;1.08;;
7255;SDS011;3669;49.200;9.242;2022-07-04T10:13:33;1.38;;;1.27;;
7255;SDS011;3669;49.200;9.242;2022-07-04T10:16:00;1.45;;;1.35;;
7255;SDS011;3669;49.200;9.242;2022-07-04T10:18:27;1.58;;;1.48;;
7255;SDS011;3669;49.200;9.242;2022-07-04T10:20:54;1.23;;;1.13;;
7255;SDS011;3669;49.200;9.242;2022-07-04T10:23:22;1.98;;;1.40;;
7255;SDS011;3669;49.200;9.242;2022-07-04T10:25:51;1.90;;;1.27;;
7255;SDS011;3669;49.200;9.242;2022-07-04T10:28:22;1.60;;;1.30;;
7255;SDS011;3669;49.200;9.242;2022-07-04T10:30:53;1.58;;;1.10;;
7255;SDS011;3669;49.200;9.242;2022-07-04T10:33:22;3.10;;;2.88;;
7255;SDS011;3669;49.200;9.242;2022-07-04T10:35:53;5.15;;;4.85;;
7255;SDS011;3669;49.200;9.242;2022-07-04T10:38:21;2.95;;;2.65;;
7255;SDS011;3669;49.200;9.242;2022-07-04T10:40:52;1.40;;;1.30;;
7255;SDS011;3669;49.200;9.242;2022-07-04T10:45:52;1.42;;;1.30;;
7255;SDS011;3669;49.200;9.242;2022-07-04T10:48:23;1.27;;;1.17;;
7255;SDS011;3669;49.200;9.242;2022-07-04T10:51:06;1.80;;;1.50;;
7255;SDS011;3669;49.200;9.242;2022-07-04T10:53:56;1.38;;;0.90;;
7255;SDS011;3669;49.200;9.242;2022-07-04T10:58:48;1.13;;;1.02;;
7255;SDS011;3669;49.200;9.242;2022-07-04T11:01:17;1.73;;;1.23;;
7255;SDS011;3669;49.200;9.242;2022-07-04T11:03:49;1.42;;;1.25;;
7255;SDS011;3669;49.200;9.242;2022-07-04T11:11:51;1.20;;;1.10;;
7255;SDS011;3669;49.200;9.242;2022-07-04T11:16:58;2.80;;;1.30;;
7255;SDS011;3669;49.200;9.242;2022-07-04T11:19:26;1.70;;;1.60;;
7255;SDS011;3669;49.200;9.242;2022-07-04T11:21:56;2.30;;;1.48;;
7255;SDS011;3669;49.200;9.242;2022-07-04T11:24:24;1.65;;;1.40;;
7255;SDS011;3669;49.200;9.242;2022-07-04T11:26:51;2.15;;;1.50;;
7255;SDS011;3669;49.200;9.242;2022-07-04T11:29:18;5.47;;;5.18;;
7255;SDS011;3669;49.200;9.242;2022-07-04T11:31:50;16.20;;;15.35;;
7255;SDS011;3669;49.200;9.242;2022-07-04T11:34:17;14.85;;;14.20;;
7255;SDS011;3669;49.200;9.242;2022-07-04T11:36:45;10.52;;;9.98;;
7255;SDS011;3669;49.200;9.242;2022-07-04T11:39:13;3.80;;;3.47;;
7255;SDS011;3669;49.200;9.242;2022-07-04T11:41:49;4.85;;;4.57;;
7255;SDS011;3669;49.200;9.242;2022-07-04T11:44:35;15.38;;;14.70;;
7255;SDS011;3669;49.200;9.242;2022-07-04T11:47:22;7.65;;;7.20;;
7255;SDS011;3669;49.200;9.242;2022-07-04T11:49:54;3.83;;;2.58;;
7255;SDS011;3669;49.200;9.242;2022-07-04T11:52:22;3.33;;;2.63;;
7255;SDS011;3669;49.200;9.242;2022-07-04T11:54:50;2.78;;;1.27;;
7255;SDS011;3669;49.200;9.242;2022-07-04T11:57:22;1.58;;;1.40;;
7255;SDS011;3669;49.200;9.242;2022-07-04T11:59:53;1.80;;;1.40;;
7255;SDS011;3669;49.200;9.242;2022-07-04T12:02:20;1.40;;;1.30;;
7255;SDS011;3669;49.200;9.242;2022-07-04T12:04:47;1.55;;;1.42;;
7255;SDS011;3669;49.200;9.242;2022-07-04T12:07:15;2.58;;;1.42;;
7255;SDS011;3669;49.200;9.242;2022-07-04T12:09:43;2.05;;;1.27;;
7255;SDS011;3669;49.200;9.242;2022-07-04T12:12:14;2.10;;;1.58;;
7255;SDS011;3669;49.200;9.242;2022-07-04T12:20:03;2.08;;;1.33;;
7255;SDS011;3669;49.200;9.242;2022-07-04T12:22:32;1.95;;;1.35;;
7255;SDS011;3669;49.200;9.242;2022-07-04T12:25:00;2.35;;;1.20;;
7255;SDS011;3669;49.200;9.242;2022-07-04T12:27:27;1.30;;;1.13;;
7255;SDS011;3669;49.200;9.242;2022-07-04T12:29:55;1.95;;;1.40;;
7255;SDS011;3669;49.200;9.242;2022-07-04T12:32:24;1.58;;;1.40;;
7255;SDS011;3669;49.200;9.242;2022-07-04T12:35:30;1.40;;;1.30;;
7255;SDS011;3669;49.200;9.242;2022-07-04T12:38:05;1.35;;;1.20;;
7255;SDS011;3669;49.200;9.242;2022-07-04T12:40:33;2.83;;;1.30;;
7255;SDS011;3669;49.200;9.242;2022-07-04T12:42:59;10.48;;;9.98;;
7255;SDS011;3669;49.200;9.242;2022-07-04T12:45:40;1.75;;;1.63;;
7255;SDS011;3669;49.200;9.242;2022-07-04T12:48:19;1.75;;;1.40;;
7255;SDS011;3669;49.200;9.242;2022-07-04T12:50:46;1.30;;;1.17;;
7255;SDS011;3669;49.200;9.242;2022-07-04T12:53:14;2.05;;;1.35;;
7255;SDS011;3669;49.200;9.242;2022-07-04T12:55:43;1.77;;;1.40;;
7255;SDS011;3669;49.200;9.242;2022-07-04T12:58:11;2.17;;;1.20;;
7255;SDS011;3669;49.200;9.242;2022-07-04T13:00:38;1.30;;;1.20;;
7255;SDS011;3669;49.200;9.242;2022-07-04T13:03:06;1.38;;;1.10;;
7255;SDS011;3669;49.200;9.242;2022-07-04T13:05:34;1.98;;;1.10;;
7255;SDS011;3669;49.200;9.242;2022-07-04T13:08:02;1.70;;;1.20;;
7255;SDS011;3669;49.200;9.242;2022-07-04T13:10:29;1.40;;;1.30;;
7255;SDS011;3669;49.200;9.242;2022-07-04T13:12:58;1.65;;;1.40;;
7255;SDS011;3669;49.200;9.242;2022-07-04T13:15:25;1.98;;;1.60;;
7255;SDS011;3669;49.200;9.242;2022-07-04T13:17:53;9.80;;;1.90;;
7255;SDS011;3669;49.200;9.242;2022-07-04T13:20:20;4.72;;;1.60;;
7255;SDS011;3669;49.200;9.242;2022-07-04T13:22:47;4.30;;;1.27;;
7255;SDS011;3669;49.200;9.242;2022-07-04T13:25:14;3.72;;;1.40;;
7255;SDS011;3669;49.200;9.242;2022-07-04T13:27:41;1.50;;;1.30;;
7255;SDS011;3669;49.200;9.242;2022-07-04T13:30:09;1.55;;;1.10;;
7255;SDS011;3669;49.200;9.242;2022-07-04T13:32:36;1.33;;;1.20;;
7255;SDS011;3669;49.200;9.242;2022-07-04T13:35:03;1.20;;;1.10;;
7255;SDS011;3669;49.200;9.242;2022-07-04T13:37:30;1.30;;;1.20;;
7255;SDS011;3669;49.200;9.242;2022-07-04T13:39:57;3.80;;;1.30;;
7255;SDS011;3669;49.200;9.242;2022-07-04T13:42:24;1.83;;;0.90;;
7255;SDS011;3669;49.200;9.242;2022-07-04T13:45:10;1.33;;;1.10;;
7255;SDS011;3669;49.200;9.242;2022-07-04T13:47:40;3.05;;;1.33;;
7255;SDS011;3669;49.200;9.242;2022-07-04T13:50:07;3.83;;;1.55;;
7255;SDS011;3669;49.200;9.242;2022-07-04T13:52:34;3.25;;;1.40;;
7255;SDS011;3669;49.200;9.242;2022-07-04T13:55:01;4.97;;;1.50;;
7255;SDS011;3669;49.200;9.242;2022-07-04T13:57:29;1.73;;;1.25;;
7255;SDS011;3669;49.200;9.242;2022-07-04T13:59:56;3.88;;;1.40;;
7255;SDS011;3669;49.200;9.242;2022-07-04T14:02:23;3.10;;;1.30;;
7255;SDS011;3669;49.200;9.242;2022-07-04T14:04:50;2.80;;;1.30;;
7255;SDS011;3669;49.200;9.242;2022-07-04T14:07:17;4.75;;;4.43;;
7255;SDS011;3669;49.200;9.242;2022-07-04T14:09:44;4.32;;;4.13;;
7255;SDS011;3669;49.200;9.242;2022-07-04T14:12:11;8.75;;;8.25;;
7255;SDS011;3669;49.200;9.242;2022-07-04T14:14:38;8.27;;;7.88;;
7255;SDS011;3669;49.200;9.242;2022-07-04T14:17:05;10.30;;;9.57;;
7255;SDS011;3669;49.200;9.242;2022-07-04T14:19:32;7.93;;;7.43;;
7255;SDS011;3669;49.200;9.242;2022-07-04T14:21:58;5.30;;;4.88;;
7255;SDS011;3669;49.200;9.242;2022-07-04T14:24:25;2.80;;;2.42;;
7255;SDS011;3669;49.200;9.242;2022-07-04T14:26:53;1.88;;;1.10;;
7255;SDS011;3669;49.200;9.242;2022-07-04T14:29:20;9.93;;;9.38;;
7255;SDS011;3669;49.200;9.242;2022-07-04T14:31:47;1.05;;;0.95;;
7255;SDS011;3669;49.200;9.242;2022-07-04T14:34:17;1.20;;;1.10;;
7255;SDS011;3669;49.200;9.242;2022-07-04T14:36:44;1.15;;;1.00;;
7255;SDS011;3669;49.200;9.242;2022-07-04T14:39:11;1.65;;;1.10;;
7255;SDS011;3669;49.200;9.242;2022-07-04T14:41:38;1.85;;;1.30;;
7255;SDS011;3669;49.200;9.242;2022-07-04T14:44:05;2.20;;;1.20;;
7255;SDS011;3669;49.200;9.242;2022-07-04T14:46:32;1.30;;;1.13;;
7255;SDS011;3669;49.200;9.242;2022-07-04T14:49:00;1.55;;;1.23;;
7255;SDS011;3669;49.200;9.242;2022-07-04T14:51:27;2.85;;;1.23;;
7255;SDS011;3669;49.200;9.242;2022-07-04T14:53:54;1.30;;;1.20;;
7255;SDS011;3669;49.200;9.242;2022-07-04T14:56:21;2.35;;;1.38;;
7255;SDS011;3669;49.200;9.242;2022-07-04T14:58:48;2.03;;;1.20;;
7255;SDS011;3669;49.200;9.242;2022-07-04T15:01:15;1.48;;;1.10;;
7255;SDS011;3669;49.200;9.242;2022-07-04T15:03:42;1.33;;;1.05;;
7255;SDS011;3669;49.200;9.242;2022-07-04T15:06:09;10.20;;;1.95;;
7255;SDS011;3669;49.200;9.242;2022-07-04T15:08:36;3.88;;;1.52;;
7255;SDS011;3669;49.200;9.242;2022-07-04T15:11:03;2.33;;;1.35;;
7255;SDS011;3669;49.200;9.242;2022-07-04T15:13:30;2.97;;;1.30;;
7255;SDS011;3669;49.200;9.242;2022-07-04T15:15:58;1.45;;;1.00;;
7255;SDS011;3669;49.200;9.242;2022-07-04T15:18:25;2.65;;;1.08;;
7255;SDS011;3669;49.200;9.242;2022-07-04T15:20:53;1.25;;;1.00;;
7255;SDS011;3669;49.200;9.242;2022-07-04T15:23:38;1.33;;;0.88;;
7255;SDS011;3669;49.200;9.242;2022-07-04T15:26:24;2.13;;;0.93;;
7255;SDS011;3669;49.200;9.242;2022-07-04T15:28:51;1.67;;;1.20;;
7255;SDS011;3669;49.200;9.242;2022-07-04T15:31:18;1.00;;;0.90;;
7255;SDS011;3669;49.200;9.242;2022-07-04T15:33:45;1.33;;;0.90;;
7255;SDS011;3669;49.200;9.242;2022-07-04T15:36:16;1.73;;;1.00;;
7255;SDS011;3669;49.200;9.242;2022-07-04T15:38:43;1.33;;;1.00;;
7255;SDS011;3669;49.200;9.242;2022-07-04T15:41:11;1.73;;;1.10;;
7255;SDS011;3669;49.200;9.242;2022-07-04T15:43:42;0.85;;;0.80;;